sensor_id;sensor_type;location;lat;lon;timestamp;P1;durP1;ratioP1;P2;durP2;ratioP2
73452;SDS011;61687;56.232;43.854;2022-08-21T00:01:24;18.92;;;9.10;;
73452;SDS011;61687;56.232;43.854;2022-08-21T00:03:52;18.25;;;10.05;;
73452;SDS011;61687;56.232;43.854;2022-08-21T00:06:19;21.50;;;10.15;;
73452;SDS011;61687;56.232;43.854;2022-08-21T00:08:45;20.20;;;9.40;;
73452;SDS011;61687;56.232;43.854;2022-08-21T00:11:11;16.45;;;8.68;;
73452;SDS011;61687;56.232;43.854;2022-08-21T00:13:37;19.88;;;9.68;;
73452;SDS011;61687;56.232;43.854;2022-08-21T00:16:03;21.08;;;9.77;;
73452;SDS011;61687;56.232;43.854;2022-08-21T00:18:29;14.45;;;9.02;;
73452;SDS011;61687;56.232;43.854;2022-08-21T00:20:56;17.83;;;9.23;;
73452;SDS011;61687;56.232;43.854;2022-08-21T00:23:22;17.50;;;9.45;;
73452;SDS011;61687;56.232;43.854;2022-08-21T00:25:48;20.90;;;9.43;;
73452;SDS011;61687;56.232;43.854;2022-08-21T00:28:14;18.80;;;9.40;;
73452;SDS011;61687;56.232;43.854;2022-08-21T00:30:41;23.60;;;9.40;;
73452;SDS011;61687;56.232;43.854;2022-08-21T00:33:09;17.25;;;10.43;;
73452;SDS011;61687;56.232;43.854;2022-08-21T00:35:36;18.73;;;9.82;;
73452;SDS011;61687;56.232;43.854;2022-08-21T00:38:06;20.25;;;9.75;;
73452;SDS011;61687;56.232;43.854;2022-08-21T00:40:35;20.80;;;9.57;;
73452;SDS011;61687;56.232;43.854;2022-08-21T00:43:14;19.93;;;9.77;;
73452;SDS011;61687;56.232;43.854;2022-08-21T00:45:43;19.55;;;10.20;;
73452;SDS011;61687;56.232;43.854;2022-08-21T00:48:09;19.17;;;10.25;;
73452;SDS011;61687;56.232;43.854;2022-08-21T00:50:38;18.60;;;10.07;;
73452;SDS011;61687;56.232;43.854;2022-08-21T00:53:07;18.13;;;9.57;;
73452;SDS011;61687;56.232;43.854;2022-08-21T00:55:36;20.93;;;9.83;;
73452;SDS011;61687;56.232;43.854;2022-08-21T00:58:03;20.85;;;9.80;;
73452;SDS011;61687;56.232;43.854;2022-08-21T01:00:34;17.88;;;9.90;;
73452;SDS011;61687;56.232;43.854;2022-08-21T01:03:06;19.92;;;9.82;;
73452;SDS011;61687;56.232;43.854;2022-08-21T01:05:35;21.05;;;9.95;;
73452;SDS011;61687;56.232;43.854;2022-08-21T01:08:03;24.10;;;10.30;;
73452;SDS011;61687;56.232;43.854;2022-08-21T01:10:29;18.27;;;9.52;;
73452;SDS011;61687;56.232;43.854;2022-08-21T01:12:56;15.48;;;9.98;;
73452;SDS011;61687;56.232;43.854;2022-08-21T01:15:24;19.77;;;9.23;;
73452;SDS011;61687;56.232;43.854;2022-08-21T01:17:56;16.63;;;10.38;;
73452;SDS011;61687;56.232;43.854;2022-08-21T01:20:22;20.50;;;9.97;;
73452;SDS011;61687;56.232;43.854;2022-08-21T01:22:48;18.30;;;10.05;;
73452;SDS011;61687;56.232;43.854;2022-08-21T01:25:14;20.50;;;10.20;;
73452;SDS011;61687;56.232;43.854;2022-08-21T01:27:42;16.30;;;9.40;;
73452;SDS011;61687;56.232;43.854;2022-08-21T01:30:13;16.25;;;9.70;;
73452;SDS011;61687;56.232;43.854;2022-08-21T01:32:43;16.93;;;11.37;;
73452;SDS011;61687;56.232;43.854;2022-08-21T01:35:09;23.27;;;9.93;;
73452;SDS011;61687;56.232;43.854;2022-08-21T01:37:36;15.80;;;8.98;;
73452;SDS011;61687;56.232;43.854;2022-08-21T01:40:03;17.83;;;9.77;;
73452;SDS011;61687;56.232;43.854;2022-08-21T01:42:31;17.45;;;9.73;;
73452;SDS011;61687;56.232;43.854;2022-08-21T01:44:58;16.33;;;9.37;;
73452;SDS011;61687;56.232;43.854;2022-08-21T01:47:23;16.38;;;9.82;;
73452;SDS011;61687;56.232;43.854;2022-08-21T01:49:50;16.83;;;10.02;;
73452;SDS011;61687;56.232;43.854;2022-08-21T01:52:16;16.80;;;10.10;;
73452;SDS011;61687;56.232;43.854;2022-08-21T01:54:42;13.70;;;9.30;;
73452;SDS011;61687;56.232;43.854;2022-08-21T01:57:09;15.00;;;10.30;;
73452;SDS011;61687;56.232;43.854;2022-08-21T01:59:35;17.85;;;9.20;;
73452;SDS011;61687;56.232;43.854;2022-08-21T02:02:03;17.40;;;8.73;;
73452;SDS011;61687;56.232;43.854;2022-08-21T02:04:29;14.55;;;9.63;;
73452;SDS011;61687;56.232;43.854;2022-08-21T02:06:55;18.60;;;9.95;;
73452;SDS011;61687;56.232;43.854;2022-08-21T02:09:21;15.40;;;10.40;;
73452;SDS011;61687;56.232;43.854;2022-08-21T02:11:47;20.13;;;9.77;;
73452;SDS011;61687;56.232;43.854;2022-08-21T02:14:14;16.67;;;9.93;;
73452;SDS011;61687;56.232;43.854;2022-08-21T02:16:41;18.27;;;10.73;;
73452;SDS011;61687;56.232;43.854;2022-08-21T02:19:09;18.40;;;10.50;;
73452;SDS011;61687;56.232;43.854;2022-08-21T02:21:36;16.55;;;10.85;;
73452;SDS011;61687;56.232;43.854;2022-08-21T02:24:03;18.67;;;10.18;;
73452;SDS011;61687;56.232;43.854;2022-08-21T02:26:30;17.95;;;10.88;;
73452;SDS011;61687;56.232;43.854;2022-08-21T02:28:55;14.70;;;9.83;;
73452;SDS011;61687;56.232;43.854;2022-08-21T02:31:21;16.77;;;10.17;;
73452;SDS011;61687;56.232;43.854;2022-08-21T02:33:47;17.23;;;10.43;;
73452;SDS011;61687;56.232;43.854;2022-08-21T02:36:14;16.33;;;9.73;;
73452;SDS011;61687;56.232;43.854;2022-08-21T02:38:40;18.15;;;10.10;;
73452;SDS011;61687;56.232;43.854;2022-08-21T02:41:09;19.30;;;10.47;;
73452;SDS011;61687;56.232;43.854;2022-08-21T02:43:37;20.00;;;9.85;;
73452;SDS011;61687;56.232;43.854;2022-08-21T02:46:04;16.60;;;10.20;;
73452;SDS011;61687;56.232;43.854;2022-08-21T02:48:31;17.20;;;9.70;;
73452;SDS011;61687;56.232;43.854;2022-08-21T02:51:04;19.45;;;10.30;;
73452;SDS011;61687;56.232;43.854;2022-08-21T02:53:38;18.47;;;11.53;;
73452;SDS011;61687;56.232;43.854;2022-08-21T02:56:06;18.60;;;10.73;;
73452;SDS011;61687;56.232;43.854;2022-08-21T02:58:35;15.77;;;10.82;;
73452;SDS011;61687;56.232;43.854;2022-08-21T03:01:05;15.27;;;10.57;;
73452;SDS011;61687;56.232;43.854;2022-08-21T03:03:35;19.65;;;10.93;;
73452;SDS011;61687;56.232;43.854;2022-08-21T03:06:03;20.63;;;10.83;;
73452;SDS011;61687;56.232;43.854;2022-08-21T03:08:30;17.38;;;10.48;;
73452;SDS011;61687;56.232;43.854;2022-08-21T03:10:56;25.95;;;12.43;;
73452;SDS011;61687;56.232;43.854;2022-08-21T03:13:26;17.60;;;10.55;;
73452;SDS011;61687;56.232;43.854;2022-08-21T03:15:53;22.30;;;10.70;;
73452;SDS011;61687;56.232;43.854;2022-08-21T03:18:20;18.63;;;9.13;;
73452;SDS011;61687;56.232;43.854;2022-08-21T03:20:46;18.50;;;9.00;;
73452;SDS011;61687;56.232;43.854;2022-08-21T03:23:12;16.52;;;9.38;;
73452;SDS011;61687;56.232;43.854;2022-08-21T03:25:40;17.13;;;10.30;;
73452;SDS011;61687;56.232;43.854;2022-08-21T03:28:09;19.70;;;7.90;;
73452;SDS011;61687;56.232;43.854;2022-08-21T03:30:40;15.63;;;9.50;;
73452;SDS011;61687;56.232;43.854;2022-08-21T03:33:07;13.88;;;8.60;;
73452;SDS011;61687;56.232;43.854;2022-08-21T03:35:33;18.48;;;8.60;;
73452;SDS011;61687;56.232;43.854;2022-08-21T03:37:59;15.32;;;9.10;;
73452;SDS011;61687;56.232;43.854;2022-08-21T03:40:25;15.23;;;7.40;;
73452;SDS011;61687;56.232;43.854;2022-08-21T03:42:51;14.38;;;8.10;;
73452;SDS011;61687;56.232;43.854;2022-08-21T03:45:17;12.15;;;8.00;;
73452;SDS011;61687;56.232;43.854;2022-08-21T03:47:57;16.85;;;7.68;;
73452;SDS011;61687;56.232;43.854;2022-08-21T03:50:26;16.02;;;7.97;;
73452;SDS011;61687;56.232;43.854;2022-08-21T03:52:55;19.40;;;7.10;;
73452;SDS011;61687;56.232;43.854;2022-08-21T03:55:22;13.15;;;6.80;;
73452;SDS011;61687;56.232;43.854;2022-08-21T03:57:49;13.38;;;7.80;;
73452;SDS011;61687;56.232;43.854;2022-08-21T04:00:15;16.60;;;8.18;;
73452;SDS011;61687;56.232;43.854;2022-08-21T04:02:44;15.40;;;7.70;;
73452;SDS011;61687;56.232;43.854;2022-08-21T04:05:12;15.20;;;7.60;;
73452;SDS011;61687;56.232;43.854;2022-08-21T04:07:39;15.30;;;6.97;;
73452;SDS011;61687;56.232;43.854;2022-08-21T04:10:05;14.90;;;7.95;;
73452;SDS011;61687;56.232;43.854;2022-08-21T04:12:32;16.73;;;8.30;;
73452;SDS011;61687;56.232;43.854;2022-08-21T04:14:58;18.80;;;8.40;;
73452;SDS011;61687;56.232;43.854;2022-08-21T04:17:24;17.05;;;9.10;;
73452;SDS011;61687;56.232;43.854;2022-08-21T04:19:52;14.93;;;8.52;;
73452;SDS011;61687;56.232;43.854;2022-08-21T04:22:18;15.93;;;8.45;;
73452;SDS011;61687;56.232;43.854;2022-08-21T04:24:44;18.27;;;8.30;;
73452;SDS011;61687;56.232;43.854;2022-08-21T04:27:10;15.03;;;7.77;;
73452;SDS011;61687;56.232;43.854;2022-08-21T04:29:36;16.85;;;8.38;;
73452;SDS011;61687;56.232;43.854;2022-08-21T04:32:02;18.00;;;8.45;;
73452;SDS011;61687;56.232;43.854;2022-08-21T04:34:28;19.30;;;7.60;;
73452;SDS011;61687;56.232;43.854;2022-08-21T04:36:54;16.53;;;7.40;;
73452;SDS011;61687;56.232;43.854;2022-08-21T04:39:20;16.30;;;7.57;;
73452;SDS011;61687;56.232;43.854;2022-08-21T04:41:46;14.30;;;7.63;;
73452;SDS011;61687;56.232;43.854;2022-08-21T04:44:12;13.05;;;6.70;;
73452;SDS011;61687;56.232;43.854;2022-08-21T04:46:38;11.47;;;6.17;;
73452;SDS011;61687;56.232;43.854;2022-08-21T04:49:04;11.57;;;6.70;;
73452;SDS011;61687;56.232;43.854;2022-08-21T04:51:34;13.40;;;7.05;;
73452;SDS011;61687;56.232;43.854;2022-08-21T04:54:09;10.70;;;6.10;;
73452;SDS011;61687;56.232;43.854;2022-08-21T04:56:41;14.13;;;6.60;;
73452;SDS011;61687;56.232;43.854;2022-08-21T04:59:17;14.13;;;6.80;;
73452;SDS011;61687;56.232;43.854;2022-08-21T05:01:48;15.32;;;7.20;;
73452;SDS011;61687;56.232;43.854;2022-08-21T05:04:16;14.07;;;7.38;;
73452;SDS011;61687;56.232;43.854;2022-08-21T05:06:46;15.23;;;6.50;;
73452;SDS011;61687;56.232;43.854;2022-08-21T05:09:14;14.80;;;7.33;;
73452;SDS011;61687;56.232;43.854;2022-08-21T05:11:42;16.90;;;7.63;;
73452;SDS011;61687;56.232;43.854;2022-08-21T05:14:09;14.20;;;6.55;;
73452;SDS011;61687;56.232;43.854;2022-08-21T05:16:36;14.20;;;6.80;;
73452;SDS011;61687;56.232;43.854;2022-08-21T05:19:03;11.93;;;6.95;;
73452;SDS011;61687;56.232;43.854;2022-08-21T05:21:31;15.57;;;6.83;;
73452;SDS011;61687;56.232;43.854;2022-08-21T05:23:57;15.98;;;7.63;;
73452;SDS011;61687;56.232;43.854;2022-08-21T05:26:23;24.23;;;8.50;;
73452;SDS011;61687;56.232;43.854;2022-08-21T05:28:49;18.10;;;7.95;;
73452;SDS011;61687;56.232;43.854;2022-08-21T05:31:15;14.07;;;7.00;;
73452;SDS011;61687;56.232;43.854;2022-08-21T05:33:40;14.23;;;7.30;;
73452;SDS011;61687;56.232;43.854;2022-08-21T05:36:07;18.02;;;6.57;;
73452;SDS011;61687;56.232;43.854;2022-08-21T05:38:32;16.02;;;7.90;;
73452;SDS011;61687;56.232;43.854;2022-08-21T05:40:58;13.10;;;7.03;;
73452;SDS011;61687;56.232;43.854;2022-08-21T05:43:24;12.90;;;6.80;;
73452;SDS011;61687;56.232;43.854;2022-08-21T05:45:50;14.98;;;6.38;;
73452;SDS011;61687;56.232;43.854;2022-08-21T05:48:17;14.05;;;7.13;;
73452;SDS011;61687;56.232;43.854;2022-08-21T05:50:48;14.43;;;6.70;;
73452;SDS011;61687;56.232;43.854;2022-08-21T05:53:16;12.05;;;6.63;;
73452;SDS011;61687;56.232;43.854;2022-08-21T05:55:44;13.05;;;7.60;;
73452;SDS011;61687;56.232;43.854;2022-08-21T05:58:11;12.45;;;6.85;;
73452;SDS011;61687;56.232;43.854;2022-08-21T06:00:39;16.42;;;7.50;;
73452;SDS011;61687;56.232;43.854;2022-08-21T06:03:09;14.03;;;6.87;;
73452;SDS011;61687;56.232;43.854;2022-08-21T06:05:36;18.23;;;7.47;;
73452;SDS011;61687;56.232;43.854;2022-08-21T06:08:03;17.05;;;7.45;;
73452;SDS011;61687;56.232;43.854;2022-08-21T06:10:29;16.80;;;7.72;;
73452;SDS011;61687;56.232;43.854;2022-08-21T06:12:55;13.40;;;7.00;;
73452;SDS011;61687;56.232;43.854;2022-08-21T06:15:21;14.67;;;7.67;;
73452;SDS011;61687;56.232;43.854;2022-08-21T06:17:47;15.07;;;7.78;;
73452;SDS011;61687;56.232;43.854;2022-08-21T06:20:13;14.50;;;7.20;;
73452;SDS011;61687;56.232;43.854;2022-08-21T06:22:39;11.77;;;7.10;;
73452;SDS011;61687;56.232;43.854;2022-08-21T06:25:05;15.82;;;7.80;;
73452;SDS011;61687;56.232;43.854;2022-08-21T06:27:31;19.75;;;7.57;;
73452;SDS011;61687;56.232;43.854;2022-08-21T06:29:57;16.43;;;8.00;;
73452;SDS011;61687;56.232;43.854;2022-08-21T06:32:23;18.87;;;9.13;;
73452;SDS011;61687;56.232;43.854;2022-08-21T06:34:49;14.95;;;6.00;;
73452;SDS011;61687;56.232;43.854;2022-08-21T06:37:15;13.77;;;6.18;;
73452;SDS011;61687;56.232;43.854;2022-08-21T06:39:41;9.97;;;5.43;;
73452;SDS011;61687;56.232;43.854;2022-08-21T06:42:12;12.98;;;6.03;;
73452;SDS011;61687;56.232;43.854;2022-08-21T06:44:39;13.77;;;5.53;;
73452;SDS011;61687;56.232;43.854;2022-08-21T06:47:05;12.60;;;5.78;;
73452;SDS011;61687;56.232;43.854;2022-08-21T06:49:31;11.60;;;5.30;;
73452;SDS011;61687;56.232;43.854;2022-08-21T06:51:57;11.63;;;6.05;;
73452;SDS011;61687;56.232;43.854;2022-08-21T06:54:23;14.63;;;6.38;;
73452;SDS011;61687;56.232;43.854;2022-08-21T06:56:49;12.23;;;5.50;;
73452;SDS011;61687;56.232;43.854;2022-08-21T06:59:15;14.82;;;5.70;;
73452;SDS011;61687;56.232;43.854;2022-08-21T07:01:41;12.57;;;6.50;;
73452;SDS011;61687;56.232;43.854;2022-08-21T07:04:06;18.53;;;7.57;;
73452;SDS011;61687;56.232;43.854;2022-08-21T07:06:33;19.58;;;6.47;;
73452;SDS011;61687;56.232;43.854;2022-08-21T07:08:59;16.95;;;8.80;;
73452;SDS011;61687;56.232;43.854;2022-08-21T07:11:26;11.70;;;5.20;;
73452;SDS011;61687;56.232;43.854;2022-08-21T07:13:52;16.98;;;6.47;;
73452;SDS011;61687;56.232;43.854;2022-08-21T07:16:20;13.23;;;6.10;;
73452;SDS011;61687;56.232;43.854;2022-08-21T07:18:46;15.13;;;7.95;;
73452;SDS011;61687;56.232;43.854;2022-08-21T07:21:13;14.50;;;5.90;;
73452;SDS011;61687;56.232;43.854;2022-08-21T07:23:46;11.30;;;6.28;;
73452;SDS011;61687;56.232;43.854;2022-08-21T07:26:15;10.40;;;6.28;;
73452;SDS011;61687;56.232;43.854;2022-08-21T07:28:42;11.87;;;6.13;;
73452;SDS011;61687;56.232;43.854;2022-08-21T07:31:09;12.90;;;6.78;;
73452;SDS011;61687;56.232;43.854;2022-08-21T07:33:39;13.13;;;5.80;;
73452;SDS011;61687;56.232;43.854;2022-08-21T07:36:06;15.85;;;6.90;;
73452;SDS011;61687;56.232;43.854;2022-08-21T07:38:32;12.43;;;5.70;;
73452;SDS011;61687;56.232;43.854;2022-08-21T07:40:59;11.80;;;5.53;;
73452;SDS011;61687;56.232;43.854;2022-08-21T07:43:27;13.82;;;5.68;;
73452;SDS011;61687;56.232;43.854;2022-08-21T07:45:54;9.55;;;6.40;;
73452;SDS011;61687;56.232;43.854;2022-08-21T07:48:20;10.18;;;5.47;;
73452;SDS011;61687;56.232;43.854;2022-08-21T07:50:47;10.60;;;5.60;;
73452;SDS011;61687;56.232;43.854;2022-08-21T07:53:13;9.40;;;5.60;;
73452;SDS011;61687;56.232;43.854;2022-08-21T07:55:39;10.35;;;4.95;;
73452;SDS011;61687;56.232;43.854;2022-08-21T07:58:05;11.43;;;5.32;;
73452;SDS011;61687;56.232;43.854;2022-08-21T08:00:32;7.97;;;5.60;;
73452;SDS011;61687;56.232;43.854;2022-08-21T08:02:58;11.23;;;4.82;;
73452;SDS011;61687;56.232;43.854;2022-08-21T08:05:25;30.23;;;5.90;;
73452;SDS011;61687;56.232;43.854;2022-08-21T08:07:53;16.40;;;5.63;;
73452;SDS011;61687;56.232;43.854;2022-08-21T08:10:20;10.68;;;4.85;;
73452;SDS011;61687;56.232;43.854;2022-08-21T08:12:46;10.45;;;4.38;;
73452;SDS011;61687;56.232;43.854;2022-08-21T08:15:14;8.73;;;4.80;;
73452;SDS011;61687;56.232;43.854;2022-08-21T08:17:42;9.45;;;4.40;;
73452;SDS011;61687;56.232;43.854;2022-08-21T08:20:09;11.18;;;4.95;;
73452;SDS011;61687;56.232;43.854;2022-08-21T08:22:37;10.77;;;4.60;;
73452;SDS011;61687;56.232;43.854;2022-08-21T08:25:05;6.75;;;4.07;;
73452;SDS011;61687;56.232;43.854;2022-08-21T08:27:32;11.33;;;4.60;;
73452;SDS011;61687;56.232;43.854;2022-08-21T08:29:58;7.63;;;4.32;;
73452;SDS011;61687;56.232;43.854;2022-08-21T08:32:24;11.10;;;4.43;;
73452;SDS011;61687;56.232;43.854;2022-08-21T08:34:51;8.20;;;4.55;;
73452;SDS011;61687;56.232;43.854;2022-08-21T08:37:18;10.48;;;4.65;;
73452;SDS011;61687;56.232;43.854;2022-08-21T08:39:45;9.03;;;4.33;;
73452;SDS011;61687;56.232;43.854;2022-08-21T08:42:12;8.50;;;4.32;;
73452;SDS011;61687;56.232;43.854;2022-08-21T08:44:44;9.43;;;4.40;;
73452;SDS011;61687;56.232;43.854;2022-08-21T08:47:13;17.35;;;4.90;;
73452;SDS011;61687;56.232;43.854;2022-08-21T08:52:31;13.27;;;4.23;;
73452;SDS011;61687;56.232;43.854;2022-08-21T08:55:02;9.48;;;4.63;;
73452;SDS011;61687;56.232;43.854;2022-08-21T08:57:29;10.60;;;4.65;;
73452;SDS011;61687;56.232;43.854;2022-08-21T08:59:58;10.60;;;4.43;;
73452;SDS011;61687;56.232;43.854;2022-08-21T09:02:26;8.10;;;4.25;;
73452;SDS011;61687;56.232;43.854;2022-08-21T09:04:54;9.73;;;4.30;;
73452;SDS011;61687;56.232;43.854;2022-08-21T09:10:18;10.27;;;4.38;;
73452;SDS011;61687;56.232;43.854;2022-08-21T09:13:06;6.00;;;3.83;;
73452;SDS011;61687;56.232;43.854;2022-08-21T09:23:56;12.45;;;4.80;;
73452;SDS011;61687;56.232;43.854;2022-08-21T09:26:47;8.55;;;4.20;;
73452;SDS011;61687;56.232;43.854;2022-08-21T09:29:39;8.02;;;4.35;;
73452;SDS011;61687;56.232;43.854;2022-08-21T09:34:54;13.65;;;4.65;;
73452;SDS011;61687;56.232;43.854;2022-08-21T09:37:29;10.10;;;4.38;;
73452;SDS011;61687;56.232;43.854;2022-08-21T09:39:56;9.70;;;3.97;;
73452;SDS011;61687;56.232;43.854;2022-08-21T09:42:32;8.38;;;3.70;;
73452;SDS011;61687;56.232;43.854;2022-08-21T09:45:07;7.40;;;3.40;;
73452;SDS011;61687;56.232;43.854;2022-08-21T09:47:39;7.10;;;3.47;;
73452;SDS011;61687;56.232;43.854;2022-08-21T09:50:07;10.43;;;3.83;;
73452;SDS011;61687;56.232;43.854;2022-08-21T09:52:58;8.55;;;3.88;;
73452;SDS011;61687;56.232;43.854;2022-08-21T09:55:38;7.22;;;4.18;;
73452;SDS011;61687;56.232;43.854;2022-08-21T09:58:32;9.20;;;4.17;;
73452;SDS011;61687;56.232;43.854;2022-08-21T10:01:00;10.95;;;3.80;;
73452;SDS011;61687;56.232;43.854;2022-08-21T10:03:28;7.70;;;3.80;;
73452;SDS011;61687;56.232;43.854;2022-08-21T10:05:59;6.70;;;3.45;;
73452;SDS011;61687;56.232;43.854;2022-08-21T10:08:31;7.55;;;3.55;;
73452;SDS011;61687;56.232;43.854;2022-08-21T10:11:03;7.03;;;3.30;;
73452;SDS011;61687;56.232;43.854;2022-08-21T10:13:36;7.45;;;3.63;;
73452;SDS011;61687;56.232;43.854;2022-08-21T10:19:38;6.25;;;3.35;;
73452;SDS011;61687;56.232;43.854;2022-08-21T10:30:17;6.32;;;3.42;;
73452;SDS011;61687;56.232;43.854;2022-08-21T10:38:46;10.13;;;3.33;;
73452;SDS011;61687;56.232;43.854;2022-08-21T10:52:16;6.87;;;3.40;;
73452;SDS011;61687;56.232;43.854;2022-08-21T10:57:16;10.65;;;3.78;;
73452;SDS011;61687;56.232;43.854;2022-08-21T11:00:00;7.60;;;3.80;;
73452;SDS011;61687;56.232;43.854;2022-08-21T11:05:12;8.27;;;3.57;;
73452;SDS011;61687;56.232;43.854;2022-08-21T11:07:48;7.13;;;3.20;;
73452;SDS011;61687;56.232;43.854;2022-08-21T11:18:53;7.03;;;3.47;;
73452;SDS011;61687;56.232;43.854;2022-08-21T11:21:35;9.65;;;3.42;;
73452;SDS011;61687;56.232;43.854;2022-08-21T11:26:43;6.68;;;3.65;;
73452;SDS011;61687;56.232;43.854;2022-08-21T11:29:15;7.25;;;3.80;;
73452;SDS011;61687;56.232;43.854;2022-08-21T11:34:39;5.32;;;3.50;;
73452;SDS011;61687;56.232;43.854;2022-08-21T11:37:26;8.20;;;3.63;;
73452;SDS011;61687;56.232;43.854;2022-08-21T11:45:52;12.30;;;3.83;;
73452;SDS011;61687;56.232;43.854;2022-08-21T11:51:05;11.45;;;4.07;;
73452;SDS011;61687;56.232;43.854;2022-08-21T11:53:42;8.48;;;3.72;;
73452;SDS011;61687;56.232;43.854;2022-08-21T11:56:39;7.75;;;3.70;;
73452;SDS011;61687;56.232;43.854;2022-08-21T11:59:16;7.83;;;4.17;;
73452;SDS011;61687;56.232;43.854;2022-08-21T12:01:46;8.93;;;3.88;;
73452;SDS011;61687;56.232;43.854;2022-08-21T12:06:52;15.68;;;3.20;;
73452;SDS011;61687;56.232;43.854;2022-08-21T12:11:59;6.80;;;3.50;;
73452;SDS011;61687;56.232;43.854;2022-08-21T12:14:38;9.07;;;3.92;;
73452;SDS011;61687;56.232;43.854;2022-08-21T12:17:17;10.13;;;3.90;;
73452;SDS011;61687;56.232;43.854;2022-08-21T12:19:56;10.32;;;3.63;;
73452;SDS011;61687;56.232;43.854;2022-08-21T12:22:34;7.20;;;3.60;;
73452;SDS011;61687;56.232;43.854;2022-08-21T12:25:05;7.70;;;3.63;;
73452;SDS011;61687;56.232;43.854;2022-08-21T12:27:47;7.68;;;3.20;;
73452;SDS011;61687;56.232;43.854;2022-08-21T12:30:32;6.20;;;3.30;;
73452;SDS011;61687;56.232;43.854;2022-08-21T12:33:03;7.95;;;3.50;;
73452;SDS011;61687;56.232;43.854;2022-08-21T12:35:32;5.90;;;3.50;;
73452;SDS011;61687;56.232;43.854;2022-08-21T12:40:41;10.70;;;4.00;;
73452;SDS011;61687;56.232;43.854;2022-08-21T12:43:18;8.05;;;4.05;;
73452;SDS011;61687;56.232;43.854;2022-08-21T12:45:47;9.90;;;3.95;;
73452;SDS011;61687;56.232;43.854;2022-08-21T12:50:53;9.60;;;3.90;;
73452;SDS011;61687;56.232;43.854;2022-08-21T12:53:35;8.68;;;4.32;;
73452;SDS011;61687;56.232;43.854;2022-08-21T12:56:23;8.00;;;3.97;;
73452;SDS011;61687;56.232;43.854;2022-08-21T12:59:02;9.23;;;4.20;;
73452;SDS011;61687;56.232;43.854;2022-08-21T13:01:31;10.63;;;4.50;;
73452;SDS011;61687;56.232;43.854;2022-08-21T13:04:13;8.67;;;3.70;;
73452;SDS011;61687;56.232;43.854;2022-08-21T13:06:45;9.88;;;4.78;;
73452;SDS011;61687;56.232;43.854;2022-08-21T13:09:15;11.90;;;4.43;;
73452;SDS011;61687;56.232;43.854;2022-08-21T13:11:46;9.50;;;4.55;;
73452;SDS011;61687;56.232;43.854;2022-08-21T13:14:36;10.77;;;5.55;;
73452;SDS011;61687;56.232;43.854;2022-08-21T13:17:05;10.73;;;4.53;;
73452;SDS011;61687;56.232;43.854;2022-08-21T13:19:32;12.10;;;5.30;;
73452;SDS011;61687;56.232;43.854;2022-08-21T13:21:59;7.40;;;4.07;;
73452;SDS011;61687;56.232;43.854;2022-08-21T13:24:27;11.70;;;4.93;;
73452;SDS011;61687;56.232;43.854;2022-08-21T13:26:55;9.07;;;3.90;;
73452;SDS011;61687;56.232;43.854;2022-08-21T13:29:23;11.63;;;4.20;;
73452;SDS011;61687;56.232;43.854;2022-08-21T13:31:56;15.00;;;5.40;;
73452;SDS011;61687;56.232;43.854;2022-08-21T13:34:29;12.70;;;6.43;;
73452;SDS011;61687;56.232;43.854;2022-08-21T13:37:00;10.82;;;4.25;;
73452;SDS011;61687;56.232;43.854;2022-08-21T13:39:29;7.43;;;3.85;;
73452;SDS011;61687;56.232;43.854;2022-08-21T13:41:57;10.63;;;3.90;;
73452;SDS011;61687;56.232;43.854;2022-08-21T13:44:34;11.45;;;3.70;;
73452;SDS011;61687;56.232;43.854;2022-08-21T13:47:01;13.70;;;4.10;;
73452;SDS011;61687;56.232;43.854;2022-08-21T13:49:33;10.93;;;3.90;;
73452;SDS011;61687;56.232;43.854;2022-08-21T13:52:01;11.55;;;3.83;;
73452;SDS011;61687;56.232;43.854;2022-08-21T13:54:35;6.40;;;4.00;;
73452;SDS011;61687;56.232;43.854;2022-08-21T13:57:03;8.23;;;3.83;;
73452;SDS011;61687;56.232;43.854;2022-08-21T13:59:33;9.00;;;3.85;;
73452;SDS011;61687;56.232;43.854;2022-08-21T14:02:22;7.60;;;4.53;;
73452;SDS011;61687;56.232;43.854;2022-08-21T14:04:59;7.50;;;3.70;;
73452;SDS011;61687;56.232;43.854;2022-08-21T14:07:36;9.40;;;3.57;;
73452;SDS011;61687;56.232;43.854;2022-08-21T14:10:06;7.65;;;3.92;;
73452;SDS011;61687;56.232;43.854;2022-08-21T14:12:41;8.10;;;3.63;;
73452;SDS011;61687;56.232;43.854;2022-08-21T14:15:18;12.02;;;3.33;;
73452;SDS011;61687;56.232;43.854;2022-08-21T14:17:47;8.57;;;3.50;;
73452;SDS011;61687;56.232;43.854;2022-08-21T14:23:22;12.15;;;3.60;;
73452;SDS011;61687;56.232;43.854;2022-08-21T14:25:50;11.63;;;4.13;;
73452;SDS011;61687;56.232;43.854;2022-08-21T14:30:51;7.82;;;4.40;;
73452;SDS011;61687;56.232;43.854;2022-08-21T14:33:23;7.73;;;3.70;;
73452;SDS011;61687;56.232;43.854;2022-08-21T14:35:53;6.40;;;3.78;;
73452;SDS011;61687;56.232;43.854;2022-08-21T14:38:20;8.27;;;3.72;;
73452;SDS011;61687;56.232;43.854;2022-08-21T14:40:49;6.88;;;3.70;;
73452;SDS011;61687;56.232;43.854;2022-08-21T14:43:19;9.45;;;4.25;;
73452;SDS011;61687;56.232;43.854;2022-08-21T14:45:46;17.93;;;4.20;;
73452;SDS011;61687;56.232;43.854;2022-08-21T14:48:12;13.77;;;4.85;;
73452;SDS011;61687;56.232;43.854;2022-08-21T14:50:39;10.75;;;4.38;;
73452;SDS011;61687;56.232;43.854;2022-08-21T14:53:05;11.20;;;4.10;;
73452;SDS011;61687;56.232;43.854;2022-08-21T14:55:31;8.10;;;4.00;;
73452;SDS011;61687;56.232;43.854;2022-08-21T14:58:18;13.67;;;4.30;;
73452;SDS011;61687;56.232;43.854;2022-08-21T15:00:45;11.68;;;4.85;;
73452;SDS011;61687;56.232;43.854;2022-08-21T15:03:11;7.38;;;4.00;;
73452;SDS011;61687;56.232;43.854;2022-08-21T15:05:36;14.95;;;6.22;;
73452;SDS011;61687;56.232;43.854;2022-08-21T15:08:03;6.83;;;4.30;;
73452;SDS011;61687;56.232;43.854;2022-08-21T15:10:31;12.68;;;4.43;;
73452;SDS011;61687;56.232;43.854;2022-08-21T15:12:59;9.23;;;4.10;;
73452;SDS011;61687;56.232;43.854;2022-08-21T15:15:26;11.35;;;4.97;;
73452;SDS011;61687;56.232;43.854;2022-08-21T15:17:52;11.82;;;5.40;;
73452;SDS011;61687;56.232;43.854;2022-08-21T15:20:18;10.87;;;4.60;;
73452;SDS011;61687;56.232;43.854;2022-08-21T15:22:44;12.20;;;5.55;;
73452;SDS011;61687;56.232;43.854;2022-08-21T15:25:09;15.13;;;5.80;;
73452;SDS011;61687;56.232;43.854;2022-08-21T15:27:36;13.97;;;5.40;;
73452;SDS011;61687;56.232;43.854;2022-08-21T15:30:03;8.90;;;4.72;;
73452;SDS011;61687;56.232;43.854;2022-08-21T15:32:29;14.27;;;5.10;;
73452;SDS011;61687;56.232;43.854;2022-08-21T15:34:56;12.95;;;6.65;;
73452;SDS011;61687;56.232;43.854;2022-08-21T15:37:23;11.82;;;5.35;;
73452;SDS011;61687;56.232;43.854;2022-08-21T15:39:50;11.77;;;4.80;;
73452;SDS011;61687;56.232;43.854;2022-08-21T15:42:17;16.05;;;5.00;;
73452;SDS011;61687;56.232;43.854;2022-08-21T15:44:44;14.15;;;5.63;;
73452;SDS011;61687;56.232;43.854;2022-08-21T15:47:13;16.33;;;4.88;;
73452;SDS011;61687;56.232;43.854;2022-08-21T15:49:42;12.82;;;6.07;;
73452;SDS011;61687;56.232;43.854;2022-08-21T15:52:11;10.37;;;5.40;;
73452;SDS011;61687;56.232;43.854;2022-08-21T15:54:41;20.20;;;8.18;;
73452;SDS011;61687;56.232;43.854;2022-08-21T15:57:08;20.90;;;6.63;;
73452;SDS011;61687;56.232;43.854;2022-08-21T15:59:44;16.00;;;6.85;;
73452;SDS011;61687;56.232;43.854;2022-08-21T16:02:14;20.75;;;8.50;;
73452;SDS011;61687;56.232;43.854;2022-08-21T16:04:43;16.67;;;7.27;;